Time;durP1;ratioP1;P1;durP2;ratioP2;P2;SDS_P1;SDS_P2;PMS_P1;PMS_P2;Temp;Humidity;BMP_temperature;BMP_pressure;BME280_temperature;BME280_humidity;BME280_pressure;Samples;Min_cycle;Max_cycle;Signal;HPM_P1;HPM_P2
2022/06/15 00:00:39;;;;;;;16.73;11.73;;;13.00;85.40;;;;;;5133996;27;20122;-79
2022/06/15 00:03:05;;;;;;;13.15;11.00;;;13.00;85.40;;;;;;5134012;27;20124;-78
2022/06/15 00:05:31;;;;;;;11.93;9.80;;;13.00;85.40;;;;;;5116851;27;20027;-80
2022/06/15 00:07:57;;;;;;;11.30;10.07;;;12.90;85.40;;;;;;5117113;27;20039;-79
2022/06/15 00:10:23;;;;;;;11.95;9.35;;;12.90;85.50;;;;;;5133881;27;20072;-80
2022/06/15 00:12:49;;;;;;;12.73;9.90;;;12.90;85.50;;;;;;5117025;27;20031;-80
2022/06/15 00:15:14;;;;;;;12.43;9.90;;;12.80;85.50;;;;;;5133697;27;20525;-79
2022/06/15 00:17:41;;;;;;;12.68;9.70;;;12.80;85.50;;;;;;5116609;27;20043;-78
2022/06/15 00:20:08;;;;;;;11.68;10.10;;;12.70;85.60;;;;;;5133299;27;20055;-79
2022/06/15 00:22:34;;;;;;;13.13;9.63;;;12.70;85.70;;;;;;5133557;27;20152;-79
2022/06/15 00:24:59;;;;;;;13.82;10.13;;;12.60;85.80;;;;;;5133829;27;20107;-80
2022/06/15 00:27:25;;;;;;;15.30;10.40;;;12.60;85.70;;;;;;5116334;27;20494;-79
2022/06/15 00:29:51;;;;;;;13.05;9.82;;;12.60;85.80;;;;;;5116326;27;20072;-79
2022/06/15 00:32:16;;;;;;;15.48;10.88;;;12.60;85.80;;;;;;5116519;27;20122;-79
2022/06/15 00:34:42;;;;;;;12.10;10.38;;;12.60;85.90;;;;;;5133390;27;20039;-79
2022/06/15 00:37:08;;;;;;;14.05;10.98;;;12.60;85.90;;;;;;5133372;27;20039;-80
2022/06/15 00:39:34;;;;;;;14.20;10.32;;;12.50;86.00;;;;;;5116227;27;20039;-79
2022/06/15 00:42:00;;;;;;;15.85;11.57;;;12.50;86.00;;;;;;5116103;27;20035;-80
2022/06/15 00:44:52;;;;;;;16.15;11.27;;;12.50;86.10;;;;;;5099462;27;20521;-80
2022/06/15 00:47:28;;;;;;;14.05;11.18;;;12.40;86.50;;;;;;5113487;27;20516;-79
2022/06/15 00:50:00;;;;;;;17.40;12.38;;;12.30;86.20;;;;;;5132831;27;20065;-79
2022/06/15 00:52:54;;;;;;;20.15;12.05;;;12.30;86.30;;;;;;5115932;27;20068;-80
2022/06/15 00:55:26;;;;;;;17.20;11.40;;;12.30;86.50;;;;;;5110060;27;20101;-80
2022/06/15 00:57:53;;;;;;;16.80;11.80;;;12.30;86.50;;;;;;5132884;27;20035;-79
2022/06/15 01:00:20;;;;;;;16.17;11.68;;;12.20;86.50;;;;;;5132840;27;20122;-80
2022/06/15 01:02:46;;;;;;;16.35;12.43;;;12.30;86.60;;;;;;5132873;27;20060;-81
2022/06/15 01:05:26;;;;;;;15.50;11.00;;;12.30;86.60;;;;;;5133045;27;20035;-81
2022/06/15 01:07:59;;;;;;;16.23;10.50;;;12.30;86.60;;;;;;5132902;27;20092;-79
2022/06/15 01:10:45;;;;;;;13.57;11.05;;;12.30;86.60;;;;;;5133148;27;20041;-82
2022/06/15 01:13:29;;;;;;;14.10;10.43;;;12.30;86.40;;;;;;5133105;27;20047;-80
2022/06/15 01:16:13;;;;;;;;;;;12.20;86.60;;;;;;5133092;27;20051;-79
2022/06/15 01:18:59;;;;;;;15.60;11.88;;;12.20;87.20;;;;;;5132805;27;20372;-81
2022/06/15 01:21:52;;;;;;;15.43;10.90;;;12.20;86.50;;;;;;5132486;27;20126;-80
2022/06/15 01:24:21;;;;;;;18.17;12.07;;;12.20;86.60;;;;;;5115439;28;20506;-80
2022/06/15 01:26:55;;;;;;;12.65;10.00;;;12.20;86.50;;;;;;5115486;28;20088;-80
2022/06/15 01:29:34;;;;;;;13.20;10.27;;;12.10;86.40;;;;;;5115562;28;20092;-79
2022/06/15 01:32:18;;;;;;;18.08;10.40;;;12.10;86.40;;;;;;5132844;28;20446;-79
2022/06/15 01:34:55;;;;;;;16.48;11.10;;;12.10;86.30;;;;;;5115456;28;20039;-79
2022/06/15 01:37:30;;;;;;;13.10;11.20;;;12.10;86.40;;;;;;5132759;28;20436;-79
2022/06/15 01:40:07;;;;;;;11.30;9.77;;;12.10;86.30;;;;;;5132734;28;20043;-79
2022/06/15 01:42:38;;;;;;;15.23;11.57;;;12.10;86.40;;;;;;5132812;28;20031;-79
2022/06/15 01:45:10;;;;;;;17.77;11.70;;;12.10;86.50;;;;;;5132464;28;20028;-78
2022/06/15 01:47:38;;;;;;;16.13;11.45;;;12.10;86.50;;;;;;5115481;28;20035;-80
2022/06/15 01:50:14;;;;;;;17.52;12.55;;;12.00;86.60;;;;;;5132469;28;20043;-80
2022/06/15 01:52:50;;;;;;;18.98;11.77;;;12.00;86.50;;;;;;5132444;28;20049;-79
2022/06/15 01:55:28;;;;;;;13.80;10.95;;;12.00;86.50;;;;;;5132579;28;20045;-78
2022/06/15 01:58:00;;;;;;;13.90;11.70;;;12.00;86.60;;;;;;5132716;28;20135;-82
2022/06/15 02:00:26;;;;;;;16.42;11.75;;;12.00;86.70;;;;;;5132197;28;20057;-80
2022/06/15 02:03:34;;;;;;;16.20;11.25;;;12.00;86.80;;;;;;5116849;27;20121;-81
2022/06/15 02:06:33;;;;;;;13.55;11.70;;;11.90;86.80;;;;;;5136113;27;20046;-79
2022/06/15 02:09:05;;;;;;;13.75;8.77;;;11.90;86.80;;;;;;5136277;27;20043;-80
2022/06/15 02:11:37;;;;;;;17.85;12.93;;;11.90;86.70;;;;;;5119072;27;20077;-79
2022/06/15 02:14:15;;;;;;;14.60;11.40;;;11.90;86.70;;;;;;5136110;27;20043;-82
2022/06/15 02:17:05;;;;;;;15.30;11.35;;;11.90;86.80;;;;;;5118901;27;20043;-80
2022/06/15 02:19:39;;;;;;;17.83;12.15;;;11.90;86.80;;;;;;5136074;27;20058;-79
2022/06/15 02:22:09;;;;;;;13.40;11.77;;;11.90;86.80;;;;;;5135965;27;20164;-79
2022/06/15 02:24:37;;;;;;;14.27;11.82;;;11.80;86.80;;;;;;5135927;27;20039;-80
2022/06/15 02:27:05;;;;;;;15.95;11.63;;;11.80;86.90;;;;;;5118667;27;20074;-80
2022/06/15 02:29:34;;;;;;;13.88;11.65;;;11.80;86.80;;;;;;5135830;27;20059;-80
2022/06/15 02:32:00;;;;;;;17.25;12.25;;;11.80;86.70;;;;;;5135798;27;20034;-80
2022/06/15 02:34:27;;;;;;;15.45;11.65;;;11.80;86.70;;;;;;5135668;27;20042;-80
2022/06/15 02:36:54;;;;;;;14.88;12.27;;;11.80;86.90;;;;;;5135944;27;20293;-80
2022/06/15 02:39:20;;;;;;;19.23;11.63;;;11.80;86.80;;;;;;5135593;27;20157;-79
2022/06/15 02:41:46;;;;;;;17.83;12.15;;;11.80;87.00;;;;;;5118367;27;20126;-78
2022/06/15 02:44:16;;;;;;;14.20;11.77;;;11.80;87.00;;;;;;5118445;27;20065;-79
2022/06/15 02:46:48;;;;;;;12.25;10.25;;;11.80;87.00;;;;;;5135761;27;20050;-78
2022/06/15 02:49:15;;;;;;;12.98;9.13;;;11.80;87.00;;;;;;5118352;27;20084;-79
2022/06/15 02:51:53;;;;;;;11.95;9.32;;;11.70;87.00;;;;;;5135413;27;20047;-79
2022/06/15 02:54:55;;;;;;;12.40;9.50;;;11.70;86.90;;;;;;5135373;27;20129;-79
2022/06/15 02:57:22;;;;;;;13.13;11.02;;;11.70;87.20;;;;;;5036218;28;20062;-79
2022/06/15 02:59:48;;;;;;;17.48;11.18;;;11.60;87.10;;;;;;5098436;27;20134;-79
2022/06/15 03:02:15;;;;;;;18.23;11.85;;;11.60;87.20;;;;;;5118162;27;20180;-80
2022/06/15 03:04:42;;;;;;;17.75;12.32;;;11.60;87.20;;;;;;5134790;27;20031;-80
2022/06/15 03:07:08;;;;;;;18.80;13.02;;;11.60;87.30;;;;;;5134548;27;20039;-79
2022/06/15 03:09:34;;;;;;;14.43;12.48;;;11.60;87.30;;;;;;5134710;27;20100;-80
2022/06/15 03:11:59;;;;;;;17.42;13.55;;;11.60;87.50;;;;;;5117945;27;20126;-81
2022/06/15 03:14:25;;;;;;;15.95;13.32;;;11.60;87.60;;;;;;5100639;27;20043;-79
2022/06/15 03:16:51;;;;;;;17.02;13.27;;;11.60;87.60;;;;;;5135289;27;20039;-78
2022/06/15 03:19:17;;;;;;;14.75;13.18;;;11.60;87.70;;;;;;5117800;27;20039;-78
2022/06/15 03:21:42;;;;;;;18.05;13.95;;;11.60;87.80;;;;;;5117454;27;20108;-80
2022/06/15 03:24:08;;;;;;;18.95;12.98;;;11.60;87.70;;;;;;5134775;27;20045;-80
2022/06/15 03:26:34;;;;;;;17.20;12.82;;;11.60;87.80;;;;;;5117625;27;20498;-79
2022/06/15 03:29:00;;;;;;;15.18;12.27;;;11.60;87.80;;;;;;5100967;27;20035;-80
2022/06/15 03:31:29;;;;;;;8.95;7.53;;;11.60;87.70;;;;;;5117532;27;20125;-78
2022/06/15 03:33:55;;;;;;;15.32;11.82;;;11.70;87.60;;;;;;5117916;27;20043;-80
2022/06/15 03:36:21;;;;;;;11.43;7.43;;;11.70;87.70;;;;;;5134478;27;20079;-80
2022/06/15 03:38:47;;;;;;;12.98;10.65;;;11.70;87.80;;;;;;5117365;27;20035;-79
2022/06/15 03:41:13;;;;;;;15.02;12.32;;;11.70;87.60;;;;;;5117227;27;20046;-79
2022/06/15 03:43:39;;;;;;;14.80;12.43;;;11.80;87.80;;;;;;5134702;27;20039;-78
2022/06/15 03:46:05;;;;;;;16.48;12.82;;;11.70;87.70;;;;;;5117060;27;20507;-79
2022/06/15 03:48:31;;;;;;;17.02;13.68;;;11.80;87.80;;;;;;5134604;27;20035;-81
2022/06/15 03:50:57;;;;;;;15.25;9.93;;;11.80;87.90;;;;;;5134238;27;20054;-79
2022/06/15 03:53:22;;;;;;;7.80;6.85;;;11.80;87.80;;;;;;5117055;27;20053;-78
2022/06/15 03:55:48;;;;;;;13.02;10.88;;;11.80;88.00;;;;;;5134031;27;20065;-79
2022/06/15 03:58:16;;;;;;;11.45;9.82;;;11.90;87.80;;;;;;5134068;27;20027;-79
2022/06/15 04:00:42;;;;;;;13.55;11.70;;;11.90;87.70;;;;;;5116806;27;20039;-81
2022/06/15 04:03:09;;;;;;;8.85;7.60;;;11.90;87.70;;;;;;5133996;27;20062;-79
2022/06/15 04:06:02;;;;;;;13.70;11.20;;;12.00;87.70;;;;;;5133927;27;20035;-79
2022/06/15 04:08:38;;;;;;;16.65;11.50;;;12.00;87.70;;;;;;5113836;27;20039;-79
2022/06/15 04:14:01;;;;;;;11.63;9.48;;;12.00;87.90;;;;;;5133797;27;20130;-80
2022/06/15 04:16:26;;;;;;;10.05;8.48;;;12.00;87.80;;;;;;5116774;27;20046;-81
2022/06/15 04:18:52;;;;;;;14.18;9.25;;;12.00;87.70;;;;;;5116846;27;20479;-81
2022/06/15 04:21:18;;;;;;;9.35;7.90;;;12.00;87.70;;;;;;5116371;27;20047;-79
2022/06/15 04:23:43;;;;;;;15.02;11.23;;;12.00;87.50;;;;;;5116676;27;20040;-77
2022/06/15 04:26:09;;;;;;;13.40;11.45;;;12.00;87.70;;;;;;5133070;27;20042;-79
2022/06/15 04:28:38;;;;;;;15.20;12.27;;;12.00;87.90;;;;;;5133479;27;20062;-81
2022/06/15 04:31:03;;;;;;;18.52;12.40;;;12.00;87.90;;;;;;5133625;27;20038;-79
2022/06/15 04:33:29;;;;;;;11.77;8.80;;;12.00;88.00;;;;;;5133723;27;20445;-78
2022/06/15 04:35:55;;;;;;;15.32;13.68;;;12.00;88.00;;;;;;5099388;27;20491;-79
2022/06/15 04:38:21;;;;;;;18.40;13.40;;;12.00;88.20;;;;;;5116055;27;20043;-78
2022/06/15 04:40:47;;;;;;;19.83;13.35;;;12.10;88.20;;;;;;5116130;27;20043;-78
2022/06/15 04:43:13;;;;;;;17.65;12.45;;;12.10;88.40;;;;;;5133497;27;20058;-77
2022/06/15 04:45:39;;;;;;;14.80;11.38;;;12.10;88.30;;;;;;5133169;27;20456;-80
2022/06/15 04:48:05;;;;;;;19.90;13.93;;;12.10;88.60;;;;;;5116020;27;20035;-80
2022/06/15 04:50:31;;;;;;;12.32;9.07;;;12.10;88.40;;;;;;5133086;27;20118;-78
2022/06/15 04:52:57;;;;;;;11.25;9.10;;;12.20;88.10;;;;;;5099038;27;20146;-79
2022/06/15 04:55:24;;;;;;;14.13;11.50;;;12.20;88.10;;;;;;5132915;27;20039;-80
2022/06/15 04:57:54;;;;;;;13.93;10.27;;;12.30;87.90;;;;;;5133038;27;20092;-80
2022/06/15 05:00:23;;;;;;;16.13;12.95;;;12.40;87.90;;;;;;5133252;27;20047;-79
2022/06/15 05:02:48;;;;;;;12.10;8.95;;;12.40;87.80;;;;;;5115879;27;20069;-78
2022/06/15 05:05:14;;;;;;;10.90;7.75;;;12.50;87.90;;;;;;5115923;27;20047;-79
2022/06/15 05:07:41;;;;;;;16.77;10.77;;;12.50;87.70;;;;;;5132882;27;20035;-80
2022/06/15 05:10:11;;;;;;;16.67;13.88;;;12.60;87.60;;;;;;5115669;27;20077;-78
2022/06/15 05:12:36;;;;;;;21.40;13.50;;;12.70;87.60;;;;;;5132919;27;20035;-78
2022/06/15 05:15:02;;;;;;;12.50;10.40;;;12.80;87.60;;;;;;5132832;27;20046;-79
2022/06/15 05:17:28;;;;;;;17.60;12.10;;;12.90;87.90;;;;;;5132743;27;20031;-78
2022/06/15 05:19:54;;;;;;;17.23;11.75;;;12.90;87.70;;;;;;5115648;28;20118;-80
2022/06/15 05:22:19;;;;;;;13.05;9.35;;;13.00;87.90;;;;;;5115673;27;20428;-77
2022/06/15 05:24:46;;;;;;;10.63;8.45;;;13.00;87.70;;;;;;5132657;28;20062;-79
2022/06/15 05:27:11;;;;;;;14.95;11.10;;;13.20;87.60;;;;;;5132619;28;20042;-79
2022/06/15 05:29:38;;;;;;;18.33;11.57;;;13.30;87.60;;;;;;5132630;28;20042;-78
2022/06/15 05:32:08;;;;;;;9.60;8.10;;;13.30;87.60;;;;;;5132605;28;20145;-79
2022/06/15 05:34:35;;;;;;;11.98;8.30;;;13.50;87.40;;;;;;5132539;28;20046;-79
2022/06/15 05:37:01;;;;;;;14.52;9.75;;;13.50;87.40;;;;;;5134286;27;20039;-79
2022/06/15 05:39:27;;;;;;;12.40;7.55;;;13.60;87.20;;;;;;5136860;27;20050;-80
2022/06/15 05:41:53;;;;;;;13.15;8.30;;;13.70;87.40;;;;;;5136629;27;20039;-78
2022/06/15 05:47:00;;;;;;;16.55;10.32;;;13.90;87.20;;;;;;5104288;27;20050;-79
2022/06/15 05:49:27;;;;;;;11.57;9.63;;;14.00;87.00;;;;;;5119571;27;20035;-80
2022/06/15 05:51:53;;;;;;;14.65;9.90;;;14.10;86.70;;;;;;5119704;27;20045;-79
2022/06/15 05:54:19;;;;;;;15.18;9.65;;;14.10;86.90;;;;;;5136467;27;20475;-78
2022/06/15 05:56:45;;;;;;;12.48;7.82;;;14.20;86.80;;;;;;5119329;27;20191;-79
2022/06/15 05:59:11;;;;;;;15.88;9.35;;;14.30;86.70;;;;;;5136713;27;20046;-77
2022/06/15 06:01:37;;;;;;;10.80;8.32;;;14.40;86.50;;;;;;5136291;27;20481;-77
2022/06/15 06:04:04;;;;;;;11.32;7.63;;;14.50;86.50;;;;;;5119154;27;20126;-77
2022/06/15 06:06:30;;;;;;;10.10;7.82;;;14.60;86.40;;;;;;5136667;27;20031;-77
2022/06/15 06:08:57;;;;;;;9.80;6.03;;;14.70;86.20;;;;;;5119083;27;20050;-78
2022/06/15 06:11:24;;;;;;;11.77;7.28;;;14.70;86.10;;;;;;5119382;27;20123;-78
2022/06/15 06:13:50;;;;;;;10.65;7.95;;;14.80;85.90;;;;;;5119132;27;20054;-78
2022/06/15 06:16:16;;;;;;;10.00;6.95;;;14.90;85.80;;;;;;5119006;27;20063;-78
2022/06/15 06:18:42;;;;;;;11.63;8.88;;;14.90;85.50;;;;;;5119240;27;20135;-78
2022/06/15 06:21:08;;;;;;;16.83;9.25;;;15.00;85.40;;;;;;5135793;27;20058;-78
2022/06/15 06:23:35;;;;;;;11.05;7.55;;;15.10;85.30;;;;;;5102339;27;20499;-79
2022/06/15 06:26:01;;;;;;;13.68;8.80;;;15.20;85.40;;;;;;5135954;27;20039;-79
2022/06/15 06:28:31;;;;;;;14.00;7.55;;;15.30;85.30;;;;;;5136154;27;20122;-78
2022/06/15 06:30:58;;;;;;;13.48;6.72;;;15.40;85.20;;;;;;5118660;27;20039;-78
2022/06/15 06:33:28;;;;;;;14.10;7.40;;;15.50;84.50;;;;;;5135857;27;20039;-78
2022/06/15 06:35:55;;;;;;;9.13;6.38;;;15.50;84.50;;;;;;5101600;27;20035;-77
2022/06/15 06:38:21;;;;;;;10.30;6.53;;;15.60;84.40;;;;;;5119010;27;20035;-77
2022/06/15 06:40:49;;;;;;;8.85;5.40;;;15.70;84.20;;;;;;5118818;27;20130;-77
2022/06/15 06:43:14;;;;;;;7.82;4.95;;;15.80;83.80;;;;;;5136691;27;20042;-80
2022/06/15 06:45:40;;;;;;;11.18;5.57;;;15.80;83.70;;;;;;5118883;27;20081;-78
2022/06/15 06:48:07;;;;;;;8.57;4.85;;;15.90;83.40;;;;;;5117758;27;20042;-77
2022/06/15 06:50:34;;;;;;;7.00;5.60;;;16.00;83.10;;;;;;5135517;27;20043;-77
2022/06/15 06:53:00;;;;;;;8.45;5.55;;;16.00;82.80;;;;;;5119003;27;20075;-79
2022/06/15 06:55:28;;;;;;;10.00;6.15;;;16.10;82.40;;;;;;5101489;27;20502;-79
2022/06/15 06:57:58;;;;;;;12.73;6.68;;;16.20;82.30;;;;;;5085095;27;20110;-77
2022/06/15 07:00:25;;;;;;;11.30;5.30;;;16.20;82.20;;;;;;5118004;27;20088;-78
2022/06/15 07:02:51;;;;;;;8.27;5.20;;;16.30;82.20;;;;;;5118173;27;20042;-78
2022/06/15 07:05:17;;;;;;;11.45;5.20;;;16.40;82.10;;;;;;5135147;27;20032;-78
2022/06/15 07:07:43;;;;;;;9.10;5.47;;;16.40;82.00;;;;;;5118181;27;20218;-78
2022/06/15 07:10:09;;;;;;;8.63;4.95;;;16.40;81.70;;;;;;5135046;27;20035;-79
2022/06/15 07:12:36;;;;;;;9.82;5.10;;;16.40;81.50;;;;;;5118214;27;20425;-77
2022/06/15 07:15:04;;;;;;;8.60;4.85;;;16.40;81.40;;;;;;5135042;27;20114;-78
2022/06/15 07:17:30;;;;;;;9.45;5.57;;;16.50;80.90;;;;;;5101110;27;20042;-77
2022/06/15 07:19:55;;;;;;;8.32;5.07;;;16.50;80.30;;;;;;5134650;27;20051;-79
2022/06/15 07:22:22;;;;;;;10.30;5.25;;;16.60;80.10;;;;;;5100834;27;20055;-77
2022/06/15 07:24:48;;;;;;;9.20;4.30;;;16.70;79.90;;;;;;5135021;27;20035;-79
2022/06/15 07:27:15;;;;;;;7.93;5.72;;;16.90;79.80;;;;;;5117648;27;20035;-79
2022/06/15 07:29:41;;;;;;;8.30;4.82;;;17.10;79.70;;;;;;5134675;27;20088;-78
2022/06/15 07:32:08;;;;;;;9.68;4.85;;;17.30;79.40;;;;;;5134693;27;20487;-78
2022/06/15 07:34:34;;;;;;;9.48;4.18;;;17.50;79.00;;;;;;5134976;27;20091;-76
2022/06/15 07:37:00;;;;;;;9.15;4.43;;;17.70;78.30;;;;;;5134835;27;20031;-78
2022/06/15 07:39:29;;;;;;;9.00;4.65;;;17.80;76.90;;;;;;5117567;27;20514;-80
2022/06/15 07:41:57;;;;;;;6.60;4.32;;;17.90;76.80;;;;;;5134595;27;20042;-77
2022/06/15 07:44:24;;;;;;;9.35;4.38;;;18.10;76.70;;;;;;5117287;27;20043;-77
2022/06/15 07:49:54;;;;;;;8.00;4.47;;;18.10;76.00;;;;;;5134684;27;20035;-79
2022/06/15 07:49:54;;;;;;;10.38;4.90;;;18.20;75.90;;;;;;5134592;27;20160;-78
2022/06/15 07:52:22;;;;;;;6.85;4.90;;;18.30;75.70;;;;;;5134276;27;20061;-79
2022/06/15 07:54:49;;;;;;;9.93;5.25;;;18.40;75.00;;;;;;5134473;27;20117;-78
2022/06/15 07:57:15;;;;;;;7.43;4.75;;;18.40;74.90;;;;;;5134045;27;20050;-79
2022/06/15 07:59:41;;;;;;;7.07;4.88;;;18.50;74.20;;;;;;5133441;27;20085;-76
2022/06/15 08:02:07;;;;;;;8.52;4.45;;;18.40;73.70;;;;;;5116554;27;20132;-77
2022/06/15 08:04:33;;;;;;;11.45;5.10;;;18.50;73.90;;;;;;5116830;27;20046;-76
2022/06/15 08:06:59;;;;;;;11.55;3.90;;;18.50;73.20;;;;;;5134165;27;20023;-76
2022/06/15 08:09:25;;;;;;;6.38;3.83;;;18.60;72.70;;;;;;5133904;27;20032;-79
2022/06/15 08:14:36;;;;;;;9.18;3.70;;;18.70;70.70;;;;;;5133835;27;20049;-78
2022/06/15 08:17:04;;;;;;;7.57;3.33;;;18.90;70.60;;;;;;5133618;27;20047;-78
2022/06/15 08:19:34;;;;;;;5.85;3.25;;;18.90;70.60;;;;;;5116394;27;20092;-78
2022/06/15 08:22:00;;;;;;;9.75;2.92;;;19.00;70.30;;;;;;5133833;27;20086;-78
2022/06/15 08:24:26;;;;;;;6.63;3.88;;;19.00;69.90;;;;;;5133888;27;20395;-78
2022/06/15 08:26:52;;;;;;;8.20;4.05;;;19.10;69.90;;;;;;5116433;27;20035;-78
2022/06/15 08:29:19;;;;;;;8.23;3.78;;;19.20;70.10;;;;;;5116407;27;20043;-79
2022/06/15 08:31:45;;;;;;;7.47;3.75;;;19.30;70.00;;;;;;5116548;27;20053;-79
2022/06/15 08:34:11;;;;;;;5.60;3.03;;;19.40;69.40;;;;;;5133948;27;20107;-78
2022/06/15 08:36:37;;;;;;;8.73;3.15;;;19.50;69.80;;;;;;5116185;27;20487;-76
2022/06/15 08:39:04;;;;;;;5.28;2.83;;;19.60;69.50;;;;;;5133783;27;20046;-78
2022/06/15 08:41:50;;;;;;;5.32;2.92;;;19.70;68.70;;;;;;5116044;27;20074;-77
2022/06/15 08:44:40;;;;;;;7.22;2.95;;;19.80;67.40;;;;;;5133261;27;20038;-79
2022/06/15 08:47:32;;;;;;;6.03;3.28;;;19.80;66.30;;;;;;5133448;27;20461;-77
2022/06/15 08:50:04;;;;;;;4.80;2.70;;;19.90;65.80;;;;;;5133401;27;20043;-78
2022/06/15 08:53:02;;;;;;;7.20;2.53;;;20.00;66.10;;;;;;5133071;27;20046;-78
2022/06/15 08:55:53;;;;;;;6.90;2.60;;;20.10;65.30;;;;;;5133059;27;20039;-79
2022/06/15 08:58:22;;;;;;;5.68;2.50;;;20.10;63.90;;;;;;5115912;27;20046;-77
2022/06/15 09:00:51;;;;;;;4.47;2.53;;;20.20;64.20;;;;;;5132852;27;20447;-77
2022/06/15 09:03:29;;;;;;;6.85;2.42;;;20.30;63.90;;;;;;5115812;27;20074;-77
2022/06/15 09:06:19;;;;;;;4.65;1.80;;;20.40;63.60;;;;;;5132980;27;20064;-77
2022/06/15 09:09:03;;;;;;;5.32;2.22;;;20.50;61.50;;;;;;5115785;27;20046;-77
2022/06/15 09:15:22;;;;;;;5.13;2.60;;;20.60;60.40;;;;;;5132752;27;20039;-78
2022/06/15 09:17:50;;;;;;;4.93;2.28;;;20.80;61.90;;;;;;5085484;27;20062;-77
2022/06/15 09:20:35;;;;;;;8.68;3.28;;;20.80;61.60;;;;;;5132625;27;20055;-78
2022/06/15 09:23:15;;;;;;;6.05;2.40;;;20.80;58.90;;;;;;5115777;27;20092;-78
2022/06/15 09:26:09;;;;;;;4.97;3.03;;;20.70;61.70;;;;;;5132615;27;20043;-79
2022/06/15 09:28:48;;;;;;;8.32;3.40;;;20.60;61.20;;;;;;5133098;28;20450;-79
2022/06/15 09:31:25;;;;;;;8.00;2.67;;;20.80;63.00;;;;;;5115748;28;20039;-79
2022/06/15 09:33:59;;;;;;;6.70;3.17;;;20.90;63.00;;;;;;5115833;28;20039;-81
2022/06/15 09:36:29;;;;;;;3.75;2.78;;;20.80;62.80;;;;;;5115463;28;20046;-79
2022/06/15 09:38:55;;;;;;;7.70;2.90;;;20.70;62.70;;;;;;5132893;28;20057;-79
2022/06/15 09:41:36;;;;;;;6.03;3.25;;;20.50;61.80;;;;;;5115356;28;20130;-82
2022/06/15 09:44:31;;;;;;;4.20;2.58;;;20.40;63.40;;;;;;5132845;28;20104;-82
2022/06/15 09:46:57;;;;;;;4.18;2.90;;;20.50;63.10;;;;;;5115576;28;20459;-79
2022/06/15 09:49:31;;;;;;;6.00;2.88;;;20.60;62.50;;;;;;5132389;28;20119;-79
2022/06/15 09:52:25;;;;;;;5.43;2.92;;;20.90;61.40;;;;;;5115391;28;20483;-79
2022/06/15 09:55:22;;;;;;;4.45;2.58;;;21.00;60.10;;;;;;5132423;28;20077;-82
2022/06/15 09:57:50;;;;;;;5.13;3.05;;;20.90;59.30;;;;;;5132587;28;20042;-78
2022/06/15 10:00:16;;;;;;;7.32;2.88;;;21.00;60.30;;;;;;5132618;28;20035;-80
2022/06/15 10:02:47;;;;;;;8.30;2.85;;;21.00;60.50;;;;;;5115709;28;20039;-80
2022/06/15 10:05:30;;;;;;;5.70;3.08;;;20.90;60.80;;;;;;5132338;28;20038;-81
2022/06/15 10:07:59;;;;;;;4.38;2.70;;;20.70;61.10;;;;;;5115283;28;20066;-80
2022/06/15 10:10:28;;;;;;;6.93;2.53;;;20.80;61.10;;;;;;5115200;28;20050;-80
2022/06/15 10:13:03;;;;;;;5.32;2.60;;;21.00;61.10;;;;;;5132228;28;20035;-79
2022/06/15 10:15:36;;;;;;;7.63;3.13;;;21.30;61.00;;;;;;5132544;28;20507;-79
2022/06/15 10:18:40;;;;;;;5.53;2.83;;;21.50;59.90;;;;;;5132189;28;20043;-78
2022/06/15 10:21:14;;;;;;;5.75;2.60;;;21.90;59.00;;;;;;5110112;28;20489;-79
2022/06/15 10:24:06;;;;;;;5.47;2.78;;;22.10;59.00;;;;;;5133218;27;20092;-77
2022/06/15 10:26:40;;;;;;;4.60;3.03;;;22.40;57.60;;;;;;5136196;27;20070;-79
2022/06/15 10:29:29;;;;;;;6.35;3.13;;;22.50;57.60;;;;;;5135989;27;20043;-79
2022/06/15 10:32:06;;;;;;;7.50;3.45;;;22.40;57.50;;;;;;5135829;27;20074;-79
2022/06/15 10:34:34;;;;;;;5.75;3.08;;;22.30;57.10;;;;;;5136052;27;20031;-79
2022/06/15 10:37:14;;;;;;;6.03;3.03;;;22.00;58.10;;;;;;5118823;27;20042;-79
2022/06/15 10:39:46;;;;;;;7.30;3.53;;;21.80;59.10;;;;;;5135982;27;20117;-80
2022/06/15 10:42:40;;;;;;;5.68;3.35;;;21.70;59.00;;;;;;5135698;27;20414;-80
2022/06/15 10:45:20;;;;;;;5.72;3.40;;;21.40;60.50;;;;;;5115454;27;20047;-80
2022/06/15 10:47:54;;;;;;;6.95;3.08;;;21.40;60.60;;;;;;5104106;28;20073;-84
2022/06/15 10:50:27;;;;;;;5.95;3.30;;;21.50;60.50;;;;;;5115725;28;20039;-80
2022/06/15 10:52:57;;;;;;;7.50;3.42;;;21.40;59.50;;;;;;5115550;28;20042;-79
2022/06/15 11:04:16;;;;;;;6.78;3.03;;;20.90;59.30;;;;;;5115180;28;20101;-81
2022/06/15 11:07:02;;;;;;;5.80;3.10;;;21.30;59.50;;;;;;5098166;28;20036;-82
2022/06/15 11:09:32;;;;;;;25.55;4.68;;;21.40;58.70;;;;;;5114761;28;20479;-85
2022/06/15 11:12:01;;;;;;;3.42;2.90;;;21.70;58.50;;;;;;5098272;28;20053;-84
2022/06/15 11:14:43;;;;;;;87.43;12.43;;;21.90;58.50;;;;;;5098072;28;20082;-83
2022/06/15 11:20:23;;;;;;;5.88;2.85;;;22.40;57.10;;;;;;5114676;28;20058;-84
2022/06/15 11:22:58;;;;;;;5.50;3.03;;;22.70;57.90;;;;;;5098058;28;20047;-85
2022/06/15 11:25:34;;;;;;;6.78;3.03;;;22.80;56.20;;;;;;5115136;28;20043;-82
2022/06/15 11:28:05;;;;;;;4.70;2.90;;;23.00;55.50;;;;;;5118616;28;20031;-82
2022/06/15 11:30:36;;;;;;;7.53;2.90;;;23.30;55.70;;;;;;5108226;28;20044;-86
2022/06/15 11:33:18;;;;;;;4.65;3.03;;;23.50;55.10;;;;;;5114871;28;20088;-84
2022/06/15 11:36:00;;;;;;;6.13;3.40;;;23.80;54.00;;;;;;5097810;28;20045;-85
2022/06/15 11:38:52;;;;;;;5.05;3.00;;;23.90;51.00;;;;;;5114794;28;20059;-81
2022/06/15 11:41:35;;;;;;;5.20;2.72;;;24.00;53.20;;;;;;5114551;28;20498;-80
2022/06/15 11:44:06;;;;;;;6.07;3.30;;;24.30;54.00;;;;;;5114686;28;20046;-78
2022/06/15 11:47:09;;;;;;;5.05;2.80;;;24.60;53.80;;;;;;5095987;28;20040;-78
2022/06/15 11:49:55;;;;;;;7.90;3.97;;;24.90;52.40;;;;;;5095152;28;20039;-79
2022/06/15 11:52:32;;;;;;;5.85;3.53;;;24.80;52.10;;;;;;5113761;28;20506;-78
2022/06/15 11:55:25;;;;;;;4.65;3.20;;;24.60;52.50;;;;;;5113706;28;20123;-77
2022/06/15 11:58:17;;;;;;;4.30;3.35;;;24.60;53.50;;;;;;5096714;28;20036;-81
2022/06/15 12:00:45;;;;;;;5.70;3.28;;;24.60;52.10;;;;;;5096885;28;20032;-80
2022/06/15 12:03:35;;;;;;;8.38;3.28;;;24.40;53.40;;;;;;5113787;28;20043;-79
2022/06/15 12:06:21;;;;;;;5.40;2.58;;;24.20;50.50;;;;;;5102951;28;20079;-80
2022/06/15 12:08:59;;;;;;;4.90;2.70;;;24.30;50.90;;;;;;5113367;28;20040;-77
2022/06/15 12:14:24;;;;;;;;;;;24.70;51.10;;;;;;5115601;27;20130;-78
2022/06/15 12:16:59;;;;;;;6.38;3.72;;;24.70;52.10;;;;;;5117178;27;19916;-78
2022/06/15 12:19:42;;;;;;;5.13;2.53;;;24.80;51.80;;;;;;5134152;27;20072;-79
2022/06/15 12:22:21;;;;;;;8.30;3.17;;;24.80;52.50;;;;;;5117037;27;20039;-79
2022/06/15 12:25:01;;;;;;;4.95;3.45;;;24.70;52.10;;;;;;5134177;27;20046;-79
2022/06/15 12:27:57;;;;;;;6.60;3.15;;;24.80;51.90;;;;;;5133648;27;20031;-78
2022/06/15 12:30:29;;;;;;;7.55;3.42;;;24.90;51.90;;;;;;5134295;27;20058;-79
2022/06/15 12:33:17;;;;;;;6.47;3.05;;;25.10;50.90;;;;;;5116804;27;20038;-81
2022/06/15 12:36:10;;;;;;;4.95;2.80;;;25.30;51.70;;;;;;5116766;27;20035;-80
2022/06/15 12:38:49;;;;;;;6.20;3.28;;;25.50;51.20;;;;;;5119389;27;20046;-80
2022/06/15 12:44:17;;;;;;;6.40;3.85;;;25.90;49.60;;;;;;5133719;27;20057;-79
2022/06/15 12:46:44;;;;;;;5.28;3.70;;;26.00;47.20;;;;;;5133023;27;20070;-79
2022/06/15 12:49:34;;;;;;;5.22;3.28;;;25.80;45.20;;;;;;5133787;27;20046;-81
2022/06/15 12:52:15;;;;;;;7.25;3.53;;;25.70;44.90;;;;;;5117021;27;20039;-79
2022/06/15 12:55:05;;;;;;;5.28;3.20;;;25.60;45.40;;;;;;5134354;27;20051;-81
2022/06/15 12:57:37;;;;;;;9.32;3.85;;;25.60;44.00;;;;;;5133644;27;20046;-80
2022/06/15 13:00:15;;;;;;;5.55;3.53;;;25.80;45.40;;;;;;5133735;27;20046;-81
2022/06/15 13:03:01;;;;;;;5.43;3.45;;;25.60;46.60;;;;;;5116470;27;20039;-82
2022/06/15 13:05:32;;;;;;;6.97;3.42;;;25.10;47.30;;;;;;5133623;27;20073;-79
2022/06/15 13:08:16;;;;;;;5.72;3.88;;;24.80;48.80;;;;;;5133979;27;20051;-80
2022/06/15 13:10:53;;;;;;;6.55;3.58;;;24.80;49.80;;;;;;5128474;27;20476;-80
2022/06/15 13:13:25;;;;;;;5.75;3.55;;;25.10;48.10;;;;;;5096163;28;20502;-81
2022/06/15 13:15:51;;;;;;;5.57;3.15;;;25.40;49.60;;;;;;5112878;28;20040;-80
2022/06/15 13:18:47;;;;;;;5.43;3.50;;;25.50;48.30;;;;;;5096284;28;20084;-80
2022/06/15 13:21:16;;;;;;;4.82;3.30;;;25.70;46.90;;;;;;5112516;28;20094;-80
2022/06/15 13:23:58;;;;;;;6.78;3.38;;;25.80;47.00;;;;;;5095762;28;20472;-79
2022/06/15 13:26:45;;;;;;;6.47;3.20;;;25.90;46.70;;;;;;5095921;28;20361;-81
2022/06/15 13:29:11;;;;;;;5.20;3.42;;;26.00;46.00;;;;;;5112544;28;20050;-81
2022/06/15 13:31:46;;;;;;;5.53;3.60;;;26.20;46.40;;;;;;5112464;28;20051;-80
2022/06/15 13:34:17;;;;;;;6.70;4.13;;;26.30;45.60;;;;;;5112936;28;20079;-81